Time;durP1;ratioP1;P1;durP2;ratioP2;P2;SDS_P1;SDS_P2;PMS_P1;PMS_P2;Temp;Humidity;BMP_temperature;BMP_pressure;BME280_temperature;BME280_humidity;BME280_pressure;Samples;Min_cycle;Max_cycle;Signal;HPM_P1;HPM_P2
2022/12/28 00:01:13;;;;;;;8.93;4.80;;;5.90;99.90;;;;;;5053634;28;20041;-61
2022/12/28 00:03:40;;;;;;;13.35;5.45;;;5.90;99.90;;;;;;5053166;28;20056;-60
2022/12/28 00:06:06;;;;;;;9.95;4.70;;;5.90;99.90;;;;;;5053671;28;20045;-60
2022/12/28 00:08:32;;;;;;;8.10;4.13;;;5.90;99.90;;;;;;5054051;28;20045;-60
2022/12/28 00:11:03;;;;;;;11.55;4.70;;;5.90;99.90;;;;;;5053027;28;20439;-61
2022/12/28 00:13:30;;;;;;;11.27;5.07;;;5.90;99.90;;;;;;5054007;28;20493;-61
2022/12/28 00:15:56;;;;;;;11.15;4.68;;;5.90;99.90;;;;;;5053807;28;20362;-60
2022/12/28 00:18:22;;;;;;;10.43;4.10;;;5.90;99.90;;;;;;5053492;28;20048;-61
2022/12/28 00:20:57;;;;;;;11.75;4.80;;;5.90;99.90;;;;;;5071766;28;20040;-61
2022/12/28 00:23:24;;;;;;;10.73;4.75;;;5.90;99.90;;;;;;5053295;28;20085;-61
2022/12/28 00:25:49;;;;;;;7.07;4.20;;;5.90;99.90;;;;;;5053565;28;20082;-60
2022/12/28 00:28:15;;;;;;;10.30;4.80;;;5.90;99.90;;;;;;5050351;28;20081;-61
2022/12/28 00:30:41;;;;;;;9.73;4.45;;;5.90;99.90;;;;;;5049811;28;20052;-60
2022/12/28 00:33:06;;;;;;;9.80;4.85;;;5.90;99.90;;;;;;5050401;28;20037;-61
2022/12/28 00:35:32;;;;;;;10.88;4.97;;;6.00;99.90;;;;;;5051753;28;20087;-60
2022/12/28 00:37:57;;;;;;;10.60;5.13;;;6.00;99.90;;;;;;5050725;28;20115;-60
2022/12/28 00:40:23;;;;;;;10.68;5.20;;;6.00;99.90;;;;;;5051691;28;20068;-61
2022/12/28 00:42:49;;;;;;;10.98;5.40;;;6.00;99.90;;;;;;5050351;28;20140;-61
2022/12/28 00:45:14;;;;;;;11.60;5.25;;;6.00;99.90;;;;;;5049243;28;20056;-60
2022/12/28 00:47:40;;;;;;;9.45;5.07;;;6.00;99.90;;;;;;5050579;28;20094;-61
2022/12/28 00:50:06;;;;;;;11.82;5.22;;;6.00;99.90;;;;;;5051215;28;20052;-61
2022/12/28 00:52:32;;;;;;;15.30;5.53;;;6.00;99.90;;;;;;5051028;28;20041;-61
2022/12/28 00:54:57;;;;;;;9.70;5.28;;;6.00;99.90;;;;;;5051517;28;20039;-61
2022/12/28 00:57:23;;;;;;;10.40;5.10;;;6.00;99.90;;;;;;5051448;28;20040;-61
2022/12/28 00:59:49;;;;;;;10.73;4.72;;;6.00;99.90;;;;;;5050456;28;20425;-61
2022/12/28 01:02:14;;;;;;;14.93;5.68;;;6.00;99.90;;;;;;5033772;28;20033;-61
2022/12/28 01:04:40;;;;;;;9.82;5.30;;;6.00;99.90;;;;;;5050476;28;20520;-60
2022/12/28 01:07:06;;;;;;;10.45;4.78;;;6.00;99.90;;;;;;5049182;28;20041;-61
2022/12/28 01:09:31;;;;;;;8.88;5.15;;;6.00;99.90;;;;;;5050228;28;20048;-60
2022/12/28 01:11:57;;;;;;;11.27;5.30;;;6.00;99.90;;;;;;5053015;28;20082;-60
2022/12/28 01:14:22;;;;;;;10.90;5.15;;;6.10;99.90;;;;;;5052830;28;20448;-60
2022/12/28 01:16:48;;;;;;;11.73;5.15;;;6.10;99.90;;;;;;5053459;28;20045;-60
2022/12/28 01:19:19;;;;;;;12.38;6.10;;;6.00;99.90;;;;;;5054437;28;20037;-60
2022/12/28 01:21:48;;;;;;;14.82;6.45;;;6.10;99.90;;;;;;5053544;28;20048;-60
2022/12/28 01:24:14;;;;;;;9.98;6.10;;;6.10;99.90;;;;;;5053671;28;20045;-60
2022/12/28 01:26:40;;;;;;;12.88;7.30;;;6.10;99.90;;;;;;5055787;28;20557;-60
2022/12/28 01:29:06;;;;;;;11.57;6.00;;;6.10;99.90;;;;;;5039567;28;20123;-60
2022/12/28 01:31:32;;;;;;;12.00;5.93;;;6.10;99.90;;;;;;5040502;28;20048;-60
2022/12/28 01:33:57;;;;;;;13.70;5.95;;;6.10;99.90;;;;;;5055828;28;20078;-60
2022/12/28 01:36:26;;;;;;;13.02;6.63;;;6.10;99.90;;;;;;5074429;28;20051;-60
2022/12/28 01:38:54;;;;;;;17.42;7.13;;;6.10;99.90;;;;;;5074594;28;20060;-60
2022/12/28 01:41:20;;;;;;;12.07;5.90;;;6.10;99.90;;;;;;5073607;28;20036;-60
2022/12/28 01:43:52;;;;;;;12.52;6.93;;;6.10;99.90;;;;;;5074164;28;20040;-60
2022/12/28 01:46:38;;;;;;;13.23;7.32;;;6.10;99.90;;;;;;5039887;28;20417;-60
2022/12/28 01:49:08;;;;;;;11.32;7.10;;;6.10;99.90;;;;;;5073166;28;20042;-60
2022/12/28 01:51:46;;;;;;;12.05;6.88;;;6.00;99.90;;;;;;5056762;28;20036;-60
2022/12/28 01:54:13;;;;;;;12.52;7.13;;;6.10;99.90;;;;;;5039374;28;20040;-60
2022/12/28 01:56:39;;;;;;;13.88;7.00;;;6.10;99.90;;;;;;5055801;28;20558;-60
2022/12/28 01:59:05;;;;;;;13.80;7.72;;;6.10;99.90;;;;;;5056037;28;20389;-60
2022/12/28 02:01:32;;;;;;;13.02;7.72;;;6.10;99.90;;;;;;5073605;28;20037;-60
2022/12/28 02:03:57;;;;;;;16.10;8.25;;;6.10;99.90;;;;;;5074125;28;20044;-60
2022/12/28 02:06:23;;;;;;;17.40;8.00;;;6.00;99.90;;;;;;5039698;28;20735;-60
2022/12/28 02:08:55;;;;;;;11.60;7.57;;;6.10;99.90;;;;;;5055244;28;20044;-60
2022/12/28 02:11:21;;;;;;;13.77;8.38;;;6.10;99.90;;;;;;5073863;28;20431;-60
2022/12/28 02:13:49;;;;;;;15.13;7.78;;;6.10;99.90;;;;;;5055754;28;20094;-60
2022/12/28 02:16:15;;;;;;;14.68;7.25;;;6.10;99.90;;;;;;5055000;28;20040;-60
2022/12/28 02:18:42;;;;;;;17.52;8.52;;;6.10;99.90;;;;;;5073745;28;20385;-60
2022/12/28 02:21:08;;;;;;;12.63;8.40;;;6.10;99.90;;;;;;5055793;28;20086;-60
2022/12/28 02:23:54;;;;;;;14.32;8.60;;;6.20;99.90;;;;;;5072041;28;20040;-60
2022/12/28 02:26:42;;;;;;;12.82;7.95;;;6.20;99.90;;;;;;5055622;28;20127;-60
2022/12/28 02:29:10;;;;;;;15.07;8.38;;;6.20;99.90;;;;;;5055622;28;20054;-60
2022/12/28 02:31:49;;;;;;;13.95;7.80;;;6.20;99.90;;;;;;5072780;28;20481;-60
2022/12/28 02:34:38;;;;;;;13.45;8.15;;;6.20;99.90;;;;;;5055486;28;20074;-60
2022/12/28 02:37:15;;;;;;;15.02;8.60;;;6.30;99.90;;;;;;5072338;28;20469;-60
2022/12/28 02:39:47;;;;;;;16.45;8.95;;;6.30;99.90;;;;;;5055574;28;20044;-60
2022/12/28 02:42:14;;;;;;;13.00;9.38;;;6.30;99.90;;;;;;5055127;28;20036;-60
2022/12/28 02:50:12;;;;;;;12.32;9.13;;;6.40;99.90;;;;;;5055498;28;20524;-60
2022/12/28 02:53:06;;;;;;;16.42;9.85;;;6.30;99.90;;;;;;5054425;28;20052;-60
2022/12/28 02:58:38;;;;;;;15.98;9.52;;;6.30;99.90;;;;;;5072309;28;20090;-60
2022/12/28 03:01:30;;;;;;;17.53;9.73;;;6.40;99.90;;;;;;5054967;28;20040;-60
2022/12/28 03:04:22;;;;;;;14.40;9.73;;;6.40;99.90;;;;;;5054865;28;20037;-60
2022/12/28 03:09:51;;;;;;;18.30;9.90;;;6.40;99.90;;;;;;5073042;28;20048;-60
2022/12/28 03:12:29;;;;;;;13.35;9.52;;;6.40;99.90;;;;;;5054028;28;20393;-60
2022/12/28 03:15:07;;;;;;;14.88;9.02;;;6.50;99.90;;;;;;5054867;28;20044;-60
2022/12/28 03:31:33;;;;;;;16.15;11.52;;;6.60;99.90;;;;;;5054777;28;20048;-60
2022/12/28 03:34:06;;;;;;;14.57;10.63;;;6.60;99.90;;;;;;5071285;28;20040;-60
2022/12/28 03:36:52;;;;;;;14.55;10.40;;;6.60;99.90;;;;;;5072309;28;20043;-60
2022/12/28 03:39:29;;;;;;;16.95;11.32;;;6.60;99.90;;;;;;5071934;28;20500;-60
2022/12/28 03:44:58;;;;;;;14.82;9.82;;;6.70;99.90;;;;;;5072242;28;20051;-60
2022/12/28 03:47:27;;;;;;;17.88;10.52;;;6.80;99.90;;;;;;5071219;28;20044;-60
2022/12/28 03:49:53;;;;;;;18.40;10.18;;;6.70;99.90;;;;;;5053971;28;20049;-60
2022/12/28 03:52:20;;;;;;;13.88;9.48;;;6.70;99.90;;;;;;5072153;28;20037;-60
2022/12/28 03:54:45;;;;;;;14.70;10.65;;;6.80;99.90;;;;;;5071158;28;20045;-60
2022/12/28 03:57:11;;;;;;;16.98;11.75;;;6.80;99.90;;;;;;5071952;28;20043;-60
2022/12/28 03:59:37;;;;;;;17.40;11.73;;;6.80;99.90;;;;;;5054496;28;20049;-60
2022/12/28 04:02:02;;;;;;;16.17;11.60;;;6.80;99.90;;;;;;5053298;28;20051;-60
2022/12/28 04:04:28;;;;;;;16.92;11.00;;;6.80;99.90;;;;;;5054264;28;20033;-60
2022/12/28 04:06:54;;;;;;;16.55;10.73;;;6.80;99.90;;;;;;5072057;28;20041;-60
2022/12/28 04:09:19;;;;;;;14.77;10.98;;;6.80;99.90;;;;;;5053171;28;20040;-60
2022/12/28 04:11:45;;;;;;;16.73;10.60;;;6.80;99.90;;;;;;5053972;28;20078;-60
2022/12/28 04:14:10;;;;;;;15.60;11.20;;;6.80;99.90;;;;;;5053787;28;20044;-60
2022/12/28 04:16:36;;;;;;;13.48;10.73;;;6.90;99.90;;;;;;5071190;28;20037;-60
2022/12/28 04:19:02;;;;;;;15.80;10.98;;;6.90;99.90;;;;;;5071960;28;20481;-60
2022/12/28 04:21:27;;;;;;;16.67;10.55;;;6.90;99.90;;;;;;5071870;28;20111;-60
2022/12/28 04:23:53;;;;;;;18.80;11.40;;;6.90;99.90;;;;;;5070820;28;20064;-60
2022/12/28 04:26:19;;;;;;;17.58;10.43;;;6.90;99.90;;;;;;5053945;28;20080;-60
2022/12/28 04:28:45;;;;;;;14.43;9.73;;;7.00;99.90;;;;;;5053613;28;20540;-60
2022/12/28 04:31:12;;;;;;;15.88;11.25;;;6.90;99.90;;;;;;5070991;28;20127;-60
2022/12/28 04:33:39;;;;;;;16.13;10.77;;;7.00;99.90;;;;;;5072066;28;20040;-60
2022/12/28 04:36:12;;;;;;;17.35;11.05;;;7.00;99.90;;;;;;5036719;28;20089;-60
2022/12/28 04:38:39;;;;;;;16.17;11.13;;;7.00;99.90;;;;;;5053817;28;20064;-60
2022/12/28 04:41:07;;;;;;;17.88;10.00;;;7.00;99.90;;;;;;5053598;28;20076;-60
2022/12/28 04:43:33;;;;;;;14.43;10.07;;;7.00;99.90;;;;;;5052924;28;20147;-60
2022/12/28 04:46:01;;;;;;;13.90;10.43;;;7.00;99.90;;;;;;5055480;28;20127;-60
2022/12/28 04:48:27;;;;;;;15.18;11.25;;;7.00;99.90;;;;;;5057484;28;20097;-60
2022/12/28 04:50:54;;;;;;;15.90;11.73;;;7.00;99.90;;;;;;5056616;28;20123;-60
2022/12/28 04:53:20;;;;;;;16.05;10.57;;;7.00;99.90;;;;;;5057235;28;20063;-60
2022/12/28 04:55:46;;;;;;;15.93;11.45;;;7.00;99.90;;;;;;5057866;28;20041;-60
2022/12/28 04:58:12;;;;;;;15.07;11.63;;;7.10;99.90;;;;;;5074112;28;20451;-60
2022/12/28 05:00:38;;;;;;;16.02;11.95;;;7.10;99.90;;;;;;5075439;28;20115;-60
2022/12/28 05:03:04;;;;;;;17.10;12.68;;;7.10;99.90;;;;;;5056935;28;20044;-60
2022/12/28 05:05:30;;;;;;;19.90;12.70;;;7.10;99.90;;;;;;5056516;28;20058;-60
2022/12/28 05:08:00;;;;;;;17.48;11.05;;;7.00;99.90;;;;;;5074768;28;20041;-60
2022/12/28 05:10:26;;;;;;;15.27;11.18;;;7.10;99.90;;;;;;5057119;28;20489;-60
2022/12/28 05:12:53;;;;;;;17.33;12.45;;;7.10;99.90;;;;;;5074292;28;20170;-60
2022/12/28 05:15:19;;;;;;;16.08;12.43;;;7.10;99.90;;;;;;5075081;28;20040;-60
2022/12/28 05:17:45;;;;;;;17.35;12.18;;;7.10;99.90;;;;;;5057061;28;20048;-60
2022/12/28 05:20:11;;;;;;;14.85;11.95;;;7.10;99.90;;;;;;5055893;28;20037;-60
2022/12/28 05:22:36;;;;;;;18.75;12.63;;;7.10;99.90;;;;;;5057182;28;20102;-60
2022/12/28 05:25:02;;;;;;;20.02;13.73;;;7.10;99.90;;;;;;5074809;28;20445;-60
2022/12/28 05:27:28;;;;;;;16.77;11.15;;;7.10;99.90;;;;;;5055856;28;20050;-60
2022/12/28 05:29:53;;;;;;;15.60;11.70;;;7.10;99.90;;;;;;5056742;28;20452;-60
2022/12/28 05:32:19;;;;;;;18.27;12.63;;;7.10;99.90;;;;;;5040113;28;20132;-60
2022/12/28 05:34:45;;;;;;;17.33;12.43;;;7.10;99.90;;;;;;5039155;28;20032;-60
2022/12/28 05:37:10;;;;;;;18.35;11.82;;;7.10;99.90;;;;;;5074203;28;20102;-60
2022/12/28 05:39:36;;;;;;;18.70;13.82;;;7.10;99.90;;;;;;5055769;28;20090;-60
2022/12/28 05:42:03;;;;;;;19.38;12.73;;;7.10;99.90;;;;;;5056681;28;20097;-60
2022/12/28 05:44:29;;;;;;;19.20;12.98;;;7.20;99.90;;;;;;5056901;28;20094;-60
2022/12/28 05:46:55;;;;;;;17.38;13.52;;;7.10;99.90;;;;;;5055910;28;20051;-60
2022/12/28 05:49:21;;;;;;;20.33;13.52;;;7.20;99.90;;;;;;5056119;28;20486;-60
2022/12/28 05:51:53;;;;;;;21.80;13.98;;;7.20;99.90;;;;;;5056170;28;20049;-60
2022/12/28 05:54:18;;;;;;;17.15;13.20;;;7.20;99.90;;;;;;5055390;28;20485;-60
2022/12/28 05:56:44;;;;;;;18.95;12.57;;;7.20;99.90;;;;;;5056271;28;20041;-60
2022/12/28 05:59:12;;;;;;;18.63;13.40;;;7.30;99.90;;;;;;5056062;28;20115;-60
2022/12/28 06:01:39;;;;;;;18.05;12.20;;;7.30;99.90;;;;;;5073383;28;20508;-60
2022/12/28 06:04:10;;;;;;;16.45;12.13;;;7.30;99.90;;;;;;5039152;28;20051;-60
2022/12/28 06:06:36;;;;;;;16.40;11.35;;;7.30;99.90;;;;;;5056594;28;20508;-60
2022/12/28 06:09:02;;;;;;;17.90;12.60;;;7.40;99.90;;;;;;5072990;28;20044;-60
2022/12/28 06:11:29;;;;;;;19.77;12.77;;;7.40;99.90;;;;;;5056108;28;20119;-60
2022/12/28 06:13:56;;;;;;;18.20;12.40;;;7.40;99.90;;;;;;5073920;28;20037;-60
2022/12/28 06:16:25;;;;;;;17.13;13.10;;;7.40;99.90;;;;;;5054884;28;20040;-60
2022/12/28 06:18:51;;;;;;;19.33;11.75;;;7.40;99.90;;;;;;5073563;28;20047;-60
2022/12/28 06:21:23;;;;;;;19.02;12.43;;;7.40;99.90;;;;;;5055670;28;20071;-60
2022/12/28 06:23:49;;;;;;;19.98;12.15;;;7.40;99.90;;;;;;5055099;28;20036;-60
2022/12/28 06:26:18;;;;;;;15.90;11.38;;;7.50;99.90;;;;;;5055692;28;20128;-60
2022/12/28 06:28:45;;;;;;;15.65;10.82;;;7.50;99.90;;;;;;5072530;28;20053;-60
2022/12/28 06:31:14;;;;;;;20.40;11.27;;;7.60;99.90;;;;;;5055803;28;20413;-60
2022/12/28 06:33:40;;;;;;;16.85;9.93;;;7.70;99.90;;;;;;5055673;28;20086;-60
2022/12/28 06:36:12;;;;;;;16.55;10.15;;;7.80;99.90;;;;;;5054191;28;20048;-60
2022/12/28 06:38:37;;;;;;;16.40;9.35;;;7.90;99.90;;;;;;5073666;28;20037;-60
2022/12/28 06:41:10;;;;;;;14.82;9.27;;;7.90;99.90;;;;;;5055293;28;20040;-60
2022/12/28 06:43:37;;;;;;;16.85;9.77;;;8.00;99.90;;;;;;5055096;28;20036;-60
2022/12/28 06:46:04;;;;;;;13.75;9.02;;;8.00;99.90;;;;;;5055657;28;20067;-60
2022/12/28 06:48:30;;;;;;;15.35;8.88;;;8.10;99.90;;;;;;5055383;28;20044;-60
2022/12/28 06:50:59;;;;;;;17.65;9.50;;;8.20;99.90;;;;;;5072493;28;20044;-60
2022/12/28 06:53:28;;;;;;;14.20;9.20;;;8.20;99.90;;;;;;5073122;28;20044;-60
2022/12/28 06:55:55;;;;;;;13.63;8.75;;;8.10;99.90;;;;;;5073054;28;20037;-60
2022/12/28 06:58:23;;;;;;;16.15;9.95;;;8.20;99.90;;;;;;5037646;28;20151;-60
2022/12/28 07:00:49;;;;;;;15.38;9.52;;;8.10;99.90;;;;;;5054955;28;20048;-60
2022/12/28 07:03:14;;;;;;;14.07;10.20;;;8.10;99.90;;;;;;5038361;28;20051;-60
2022/12/28 07:05:40;;;;;;;16.50;11.10;;;8.10;99.90;;;;;;5072368;28;20040;-60
2022/12/28 07:08:06;;;;;;;15.90;10.52;;;8.10;99.90;;;;;;5072083;28;20485;-60
2022/12/28 07:10:32;;;;;;;16.58;9.60;;;8.00;99.90;;;;;;5072973;28;20378;-60
2022/12/28 07:12:58;;;;;;;13.82;10.43;;;8.10;99.90;;;;;;5070490;28;20043;-60
2022/12/28 07:15:24;;;;;;;21.70;11.00;;;8.10;99.90;;;;;;5057784;28;20396;-60
2022/12/28 07:17:50;;;;;;;20.70;11.60;;;8.00;99.90;;;;;;5052621;28;20045;-60
2022/12/28 07:20:15;;;;;;;15.02;10.02;;;8.00;99.90;;;;;;5070564;28;20043;-60
2022/12/28 07:22:41;;;;;;;15.55;9.95;;;8.00;99.90;;;;;;5065986;28;20120;-60
2022/12/28 07:25:07;;;;;;;17.38;10.63;;;8.00;99.90;;;;;;5071984;28;20063;-60
2022/12/28 07:27:34;;;;;;;18.73;11.05;;;8.00;99.90;;;;;;5054415;28;20055;-60
2022/12/28 07:30:00;;;;;;;17.08;10.93;;;8.00;99.90;;;;;;5072090;28;20473;-60
2022/12/28 07:32:26;;;;;;;21.05;11.77;;;8.00;99.90;;;;;;5070961;28;20037;-60
2022/12/28 07:34:51;;;;;;;20.05;11.52;;;8.10;99.90;;;;;;5037939;28;20040;-60
2022/12/28 07:37:17;;;;;;;14.80;9.50;;;8.10;99.90;;;;;;5071798;28;20378;-60
2022/12/28 07:39:43;;;;;;;19.13;11.13;;;8.20;99.90;;;;;;5067679;28;20044;-60
2022/12/28 07:42:10;;;;;;;24.92;10.85;;;8.20;99.90;;;;;;5069883;28;20033;-60
2022/12/28 07:44:40;;;;;;;20.55;11.40;;;8.30;99.90;;;;;;5052186;28;20052;-60
2022/12/28 07:47:06;;;;;;;20.48;11.10;;;8.30;99.90;;;;;;5051040;28;20080;-60
2022/12/28 07:49:33;;;;;;;24.63;10.68;;;8.30;99.90;;;;;;5070057;28;20048;-60
2022/12/28 07:51:59;;;;;;;20.17;10.07;;;8.40;99.90;;;;;;5056347;28;20048;-60
2022/12/28 07:54:24;;;;;;;21.10;9.82;;;8.40;99.90;;;;;;5065145;28;20508;-60
2022/12/28 07:56:50;;;;;;;19.70;10.32;;;8.40;99.90;;;;;;5057669;28;20127;-60
2022/12/28 07:59:16;;;;;;;19.92;10.43;;;8.50;99.90;;;;;;5015640;28;20147;-60
2022/12/28 08:01:41;;;;;;;18.98;10.75;;;8.50;99.90;;;;;;5038786;28;20048;-60
2022/12/28 08:04:10;;;;;;;18.63;10.00;;;8.50;99.90;;;;;;5059003;28;20055;-60
2022/12/28 08:06:38;;;;;;;14.85;8.95;;;8.50;99.90;;;;;;5059009;28;20044;-60
2022/12/28 08:09:05;;;;;;;19.45;9.00;;;8.60;99.90;;;;;;5066363;28;20511;-60
2022/12/28 08:11:33;;;;;;;13.95;8.70;;;8.50;99.90;;;;;;5065255;28;20052;-60
2022/12/28 08:14:00;;;;;;;16.15;9.07;;;8.50;99.90;;;;;;5066574;28;20105;-60
2022/12/28 08:16:28;;;;;;;16.83;9.38;;;8.60;99.90;;;;;;5052779;28;20040;-60
2022/12/28 08:18:54;;;;;;;18.50;8.88;;;8.60;99.90;;;;;;5069022;28;20512;-60
2022/12/28 08:21:24;;;;;;;19.17;10.30;;;8.60;99.90;;;;;;5055278;28;20159;-60
2022/12/28 08:23:50;;;;;;;20.23;9.65;;;8.60;99.90;;;;;;5042728;28;20178;-60
2022/12/28 08:26:19;;;;;;;17.15;10.85;;;8.60;99.90;;;;;;5072948;28;20115;-60
2022/12/28 08:28:47;;;;;;;14.43;9.75;;;8.60;99.90;;;;;;5054327;28;20128;-60
2022/12/28 08:31:17;;;;;;;14.75;10.25;;;8.60;99.90;;;;;;5054911;28;20093;-60
2022/12/28 08:33:43;;;;;;;16.73;9.70;;;8.60;99.90;;;;;;5069414;28;20040;-60
2022/12/28 08:36:09;;;;;;;17.55;8.88;;;8.60;99.90;;;;;;5065211;28;20040;-60
2022/12/28 08:38:36;;;;;;;15.43;9.70;;;8.60;99.90;;;;;;5071616;28;20131;-60
2022/12/28 08:41:04;;;;;;;14.73;8.32;;;8.70;99.90;;;;;;5054864;28;20056;-61
2022/12/28 08:43:31;;;;;;;10.45;6.07;;;8.70;99.90;;;;;;5037769;28;20032;-60
2022/12/28 08:46:01;;;;;;;11.65;6.57;;;8.70;99.90;;;;;;5054897;28;20051;-60
2022/12/28 08:48:27;;;;;;;10.65;6.53;;;8.70;99.90;;;;;;5072970;28;20739;-60
2022/12/28 08:50:54;;;;;;;12.38;6.45;;;8.70;99.90;;;;;;5054955;28;20533;-61
2022/12/28 08:53:23;;;;;;;12.85;7.32;;;8.70;99.90;;;;;;5038682;28;20048;-60
2022/12/28 08:55:50;;;;;;;10.27;6.70;;;8.70;99.90;;;;;;5054722;28;20385;-60
2022/12/28 08:58:16;;;;;;;11.63;6.40;;;8.70;99.90;;;;;;5070947;28;20447;-60
2022/12/28 09:00:42;;;;;;;10.52;6.15;;;8.60;99.90;;;;;;5054355;28;20123;-61
2022/12/28 09:03:08;;;;;;;11.88;5.80;;;8.60;99.90;;;;;;5071593;28;20174;-60
2022/12/28 09:05:37;;;;;;;9.90;6.25;;;8.60;99.90;;;;;;5053464;28;20044;-60
2022/12/28 09:08:03;;;;;;;9.13;4.50;;;8.60;99.90;;;;;;5056871;28;20094;-61
2022/12/28 09:10:29;;;;;;;7.38;4.47;;;8.60;99.90;;;;;;5037745;28;20041;-60
2022/12/28 09:12:55;;;;;;;8.48;4.40;;;8.60;99.90;;;;;;5054310;28;20045;-61
2022/12/28 09:15:21;;;;;;;7.43;4.32;;;8.60;99.90;;;;;;5071154;28;20044;-61
2022/12/28 09:17:47;;;;;;;6.30;3.67;;;8.60;99.90;;;;;;5068625;28;20409;-61
2022/12/28 09:20:12;;;;;;;7.53;3.30;;;8.60;99.90;;;;;;5071203;28;20123;-60
2022/12/28 09:22:38;;;;;;;7.88;2.30;;;8.60;99.90;;;;;;5071746;28;20860;-61
2022/12/28 09:25:04;;;;;;;6.68;3.55;;;8.60;99.90;;;;;;5070024;28;20485;-60
2022/12/28 09:27:30;;;;;;;5.75;2.78;;;8.60;99.90;;;;;;5037039;28;20113;-60
2022/12/28 09:29:56;;;;;;;6.97;3.42;;;8.60;99.90;;;;;;5071605;28;20044;-60
2022/12/28 09:32:21;;;;;;;9.90;2.67;;;8.60;99.90;;;;;;5066402;28;20051;-60
2022/12/28 09:34:47;;;;;;;7.28;2.70;;;8.60;99.90;;;;;;5059476;28;20045;-60
2022/12/28 09:37:13;;;;;;;5.72;2.97;;;8.60;99.90;;;;;;5046634;28;20037;-61
2022/12/28 09:39:38;;;;;;;6.70;3.60;;;8.60;99.90;;;;;;5069996;28;20085;-61
2022/12/28 09:42:26;;;;;;;7.20;3.88;;;8.50;99.90;;;;;;5071065;28;20170;-61
2022/12/28 09:45:10;;;;;;;9.75;4.65;;;8.50;99.90;;;;;;5055837;28;20044;-60
2022/12/28 09:47:46;;;;;;;9.93;5.13;;;8.50;99.90;;;;;;5057094;28;20066;-61
2022/12/28 09:50:15;;;;;;;9.43;5.55;;;8.60;99.90;;;;;;5053340;28;20048;-61
2022/12/28 09:53:19;;;;;;;9.73;5.47;;;8.60;99.90;;;;;;5074480;28;20040;-61
2022/12/28 09:56:17;;;;;;;10.57;5.18;;;8.60;99.90;;;;;;5067275;28;20058;-60
2022/12/28 09:58:44;;;;;;;8.68;4.95;;;8.70;99.90;;;;;;5016129;28;20412;-60
2022/12/28 10:01:13;;;;;;;10.07;4.15;;;8.70;99.90;;;;;;5063415;28;20052;-61
2022/12/28 10:03:41;;;;;;;7.65;4.75;;;8.80;99.90;;;;;;5053167;28;20482;-61
2022/12/28 10:06:15;;;;;;;6.97;4.05;;;8.90;99.90;;;;;;5053481;28;20527;-60
2022/12/28 10:08:51;;;;;;;8.73;4.88;;;8.90;99.90;;;;;;5052646;28;20037;-60
2022/12/28 10:11:24;;;;;;;7.97;5.22;;;9.00;99.90;;;;;;5036662;28;20040;-61
2022/12/28 10:13:58;;;;;;;7.40;4.97;;;9.00;99.90;;;;;;5069606;28;20496;-61
2022/12/28 10:16:28;;;;;;;9.65;5.55;;;9.00;99.90;;;;;;5069347;28;20043;-61
2022/12/28 10:18:55;;;;;;;9.60;5.60;;;8.90;99.90;;;;;;5052923;28;20040;-60
2022/12/28 10:21:23;;;;;;;8.57;5.95;;;9.00;99.90;;;;;;5070329;28;20040;-61
2022/12/28 10:23:53;;;;;;;7.32;4.95;;;9.00;99.90;;;;;;5055921;28;20119;-61
2022/12/28 10:26:19;;;;;;;7.50;5.15;;;9.00;99.90;;;;;;5061699;28;20086;-60
2022/12/28 10:28:56;;;;;;;8.35;5.43;;;9.00;99.90;;;;;;5038350;28;20409;-60
2022/12/28 10:31:31;;;;;;;9.07;6.97;;;8.90;99.90;;;;;;5052399;28;20052;-60
2022/12/28 10:33:57;;;;;;;11.18;7.43;;;9.00;99.90;;;;;;5057465;28;20688;-61
2022/12/28 10:36:24;;;;;;;10.48;7.25;;;8.90;99.90;;;;;;5066965;28;21008;-60
2022/12/28 10:38:53;;;;;;;10.23;8.05;;;8.90;99.90;;;;;;5053335;28;20135;-61
2022/12/28 10:41:20;;;;;;;12.88;7.90;;;8.90;99.90;;;;;;5056023;28;20044;-61
2022/12/28 10:47:40;;;;;;;9.73;6.15;;;8.90;99.90;;;;;;5065861;28;20089;-61
2022/12/28 10:50:06;;;;;;;12.00;7.35;;;8.80;99.90;;;;;;5065905;28;20070;-60
2022/12/28 10:52:32;;;;;;;12.15;8.23;;;8.80;99.90;;;;;;5048361;28;20047;-61
2022/12/28 10:54:57;;;;;;;11.75;7.97;;;8.70;99.90;;;;;;5055471;28;20032;-60
2022/12/28 10:57:26;;;;;;;11.85;7.15;;;8.70;99.90;;;;;;5063215;28;20181;-61
2022/12/28 10:59:52;;;;;;;10.57;7.00;;;8.70;99.90;;;;;;5068273;28;20616;-60
2022/12/28 11:02:27;;;;;;;11.27;7.07;;;8.60;99.90;;;;;;5058719;28;20120;-60
2022/12/28 11:05:02;;;;;;;20.33;10.25;;;8.60;99.90;;;;;;5040676;28;20123;-60
2022/12/28 11:07:34;;;;;;;13.25;8.52;;;8.60;99.90;;;;;;5052897;28;20060;-61
2022/12/28 11:10:21;;;;;;;14.85;9.55;;;8.60;99.90;;;;;;5053678;28;20049;-60
2022/12/28 11:12:48;;;;;;;14.68;9.95;;;8.50;99.90;;;;;;5056399;28;20045;-60
2022/12/28 11:15:16;;;;;;;14.70;9.57;;;8.50;99.90;;;;;;5055723;28;20114;-60
2022/12/28 11:17:42;;;;;;;13.52;10.40;;;8.50;99.90;;;;;;5065178;28;20041;-60
2022/12/28 11:20:21;;;;;;;13.75;9.93;;;8.50;99.90;;;;;;5070172;28;20028;-60
2022/12/28 11:22:47;;;;;;;13.77;9.18;;;8.50;99.90;;;;;;5067033;28;20047;-60
2022/12/28 11:25:25;;;;;;;13.90;8.57;;;8.60;99.90;;;;;;5051130;28;20037;-60
2022/12/28 11:28:26;;;;;;;12.15;8.05;;;8.50;99.90;;;;;;5069542;28;20142;-60
2022/12/28 11:30:53;;;;;;;9.23;6.53;;;8.50;99.90;;;;;;4954437;28;20468;-60
2022/12/28 11:33:42;;;;;;;10.38;7.03;;;8.50;99.90;;;;;;5030381;28;20132;-60
2022/12/28 11:36:17;;;;;;;8.55;6.03;;;8.60;99.90;;;;;;5058380;28;20040;-60
2022/12/28 11:38:46;;;;;;;10.50;7.55;;;8.70;99.90;;;;;;5052313;28;20574;-60
2022/12/28 11:41:39;;;;;;;10.50;6.40;;;8.60;99.90;;;;;;5070152;28;20037;-60
2022/12/28 11:44:19;;;;;;;11.25;8.05;;;8.70;99.90;;;;;;5061956;28;20119;-60
2022/12/28 11:47:00;;;;;;;10.25;7.03;;;8.70;99.90;;;;;;5052977;28;20479;-60
2022/12/28 11:49:29;;;;;;;10.18;6.93;;;8.70;99.90;;;;;;5071773;28;20127;-60
2022/12/28 11:52:43;;;;;;;10.90;6.78;;;8.70;99.90;;;;;;5057332;28;20085;-60
2022/12/28 11:55:21;;;;;;;9.75;6.88;;;8.70;99.90;;;;;;5024957;28;20556;-60
2022/12/28 11:57:47;;;;;;;9.93;6.22;;;8.70;99.90;;;;;;5069929;28;20068;-60
2022/12/28 12:00:16;;;;;;;9.57;6.40;;;8.70;99.90;;;;;;5071001;28;20071;-61
2022/12/28 12:02:48;;;;;;;10.10;6.57;;;8.70;99.90;;;;;;5063167;28;20067;-60
2022/12/28 12:05:32;;;;;;;10.07;6.80;;;8.80;99.90;;;;;;5071590;28;20158;-60
2022/12/28 12:07:58;;;;;;;9.63;6.72;;;8.80;99.90;;;;;;5033347;28;20417;-60
2022/12/28 12:10:32;;;;;;;8.82;6.07;;;8.80;99.90;;;;;;5048661;28;20051;-60
2022/12/28 12:12:59;;;;;;;9.68;7.43;;;8.80;99.90;;;;;;5067359;28;20032;-60
2022/12/28 12:15:32;;;;;;;10.90;7.20;;;8.80;99.90;;;;;;5055429;28;20083;-60
2022/12/28 12:18:06;;;;;;;10.68;6.68;;;8.80;99.90;;;;;;5071746;28;20044;-60
2022/12/28 12:21:04;;;;;;;11.50;8.18;;;8.90;99.90;;;;;;5070846;28;20036;-60
2022/12/28 12:23:44;;;;;;;10.60;7.68;;;8.90;99.90;;;;;;5070254;28;20635;-60
2022/12/28 12:26:32;;;;;;;11.82;7.72;;;8.80;99.90;;;;;;5071280;28;20504;-60
2022/12/28 12:29:18;;;;;;;10.65;7.93;;;8.80;99.90;;;;;;5067088;28;20115;-60
2022/12/28 12:31:55;;;;;;;10.73;7.93;;;8.80;99.90;;;;;;5058675;28;20041;-60
2022/12/28 12:34:41;;;;;;;12.07;8.13;;;8.80;99.90;;;;;;5070998;28;20553;-60
2022/12/28 12:37:19;;;;;;;10.57;7.63;;;8.80;99.90;;;;;;5049668;28;20049;-60
2022/12/28 12:40:15;;;;;;;10.43;7.93;;;8.80;99.90;;;;;;5056737;28;20397;-60
2022/12/28 12:43:05;;;;;;;10.10;6.57;;;8.80;99.90;;;;;;5070052;28;20036;-60
2022/12/28 12:45:58;;;;;;;9.60;6.65;;;8.80;99.90;;;;;;5041626;28;20489;-60
2022/12/28 12:48:45;;;;;;;10.27;6.43;;;8.80;99.90;;;;;;5067228;28;20033;-60
2022/12/28 12:51:19;;;;;;;11.70;6.63;;;8.80;99.90;;;;;;5064932;28;20052;-60
2022/12/28 12:53:58;;;;;;;10.63;7.30;;;8.80;99.90;;;;;;5065136;28;20054;-60
2022/12/28 12:56:30;;;;;;;8.85;5.57;;;8.70;99.90;;;;;;5049472;28;20485;-60
2022/12/28 12:59:10;;;;;;;7.63;4.78;;;8.80;99.90;;;;;;5052236;28;20465;-60
2022/12/28 13:02:13;;;;;;;9.27;5.47;;;8.80;99.90;;;;;;5066568;28;20040;-60
2022/12/28 13:04:40;;;;;;;11.60;6.15;;;8.80;99.90;;;;;;5060531;28;20049;-60
2022/12/28 13:07:26;;;;;;;11.95;6.38;;;8.70;99.90;;;;;;5051007;28;20111;-60
2022/12/28 13:09:53;;;;;;;;;;;8.80;99.90;;;;;;5070965;28;20041;-60
2022/12/28 13:12:19;;;;;;;8.63;6.22;;;8.80;99.90;;;;;;5052224;28;20420;-60
2022/12/28 13:15:04;;;;;;;10.63;6.18;;;8.80;99.90;;;;;;5068719;28;20599;-60
2022/12/28 13:17:30;;;;;;;9.30;5.50;;;8.70;99.90;;;;;;5062035;28;20490;-60
2022/12/28 13:20:07;;;;;;;10.85;7.35;;;8.70;99.90;;;;;;5070273;28;20128;-60
2022/12/28 13:22:33;;;;;;;8.77;5.78;;;8.70;99.90;;;;;;5070717;28;20036;-60
2022/12/28 13:24:59;;;;;;;8.15;5.97;;;8.70;99.90;;;;;;5053303;28;20500;-60
2022/12/28 13:27:32;;;;;;;8.68;5.47;;;8.80;99.90;;;;;;5053448;28;20060;-60
2022/12/28 13:30:00;;;;;;;9.45;5.78;;;8.70;99.90;;;;;;5062513;28;20083;-60
2022/12/28 13:32:27;;;;;;;8.23;5.10;;;8.80;99.90;;;;;;5068680;28;20041;-60